Terminal Aerodrome Forecast
Issued by NWS Melbourne, FL

Home | Current Version | Previous Version | Text Only | Print | Product List | Glossary On
Versions: 1 2 3 4 5 6 7 8 9 10 11 12 13 14 15
871
FTUS42 KMLB 281727
TAFDAB
TAF
KDAB 281727Z 2818/2918 07012G18KT P6SM SCT035 SCT050
     FM290000 06006KT P6SM SCT025
     FM291400 08008KT P6SM VCSH SCT030 BKN080 BKN250=

USA.gov is the U.S. government's official web portal to all federal, state and local government web resources and services.